createdAt,value
2019-05-22T00:00:29.644Z,0.00
2019-05-22T00:01:29.683Z,0.00
2019-05-22T00:02:29.740Z,0.00
2019-05-22T00:03:29.793Z,0.00
2019-05-22T00:04:29.850Z,0.00
2019-05-22T00:05:29.907Z,0.00
2019-05-22T00:06:29.964Z,0.00
2019-05-22T00:07:30.069Z,0.00
2019-05-22T00:08:30.130Z,0.00
2019-05-22T00:09:30.132Z,0.00
2019-05-22T00:10:30.191Z,0.00
2019-05-22T00:11:30.249Z,0.00
2019-05-22T00:12:44.284Z,0.00
2019-05-22T00:13:30.355Z,0.00
2019-05-22T00:14:30.443Z,0.00
2019-05-22T00:15:30.906Z,0.00
2019-05-22T00:16:30.523Z,0.00
2019-05-22T00:17:30.581Z,0.00
2019-05-22T00:18:30.640Z,0.00
2019-05-22T00:19:30.695Z,0.00
2019-05-22T00:20:30.747Z,0.00
2019-05-22T00:21:30.827Z,0.00
2019-05-22T00:22:30.864Z,0.00
2019-05-22T00:23:30.916Z,0.00
2019-05-22T00:24:30.973Z,0.00
2019-05-22T00:25:33.199Z,0.00
2019-05-22T00:26:31.086Z,0.00
2019-05-22T00:27:31.141Z,0.00
2019-05-22T00:28:31.230Z,0.00
2019-05-22T00:29:31.255Z,0.00
2019-05-22T00:30:31.309Z,0.00
2019-05-22T00:31:31.365Z,0.00
2019-05-22T00:32:31.421Z,0.00
2019-05-22T00:33:31.478Z,0.00
2019-05-22T00:34:31.535Z,0.00
2019-05-22T00:35:31.590Z,0.00
2019-05-22T00:36:31.646Z,0.00
2019-05-22T00:37:31.703Z,0.00
2019-05-22T00:38:31.802Z,0.00
2019-05-22T00:39:31.813Z,0.00
2019-05-22T00:40:31.869Z,0.00
2019-05-22T00:41:31.926Z,0.00
2019-05-22T00:42:31.982Z,0.00
2019-05-22T00:43:32.041Z,0.00
2019-05-22T00:44:32.095Z,0.00
2019-05-22T00:45:32.152Z,0.00
2019-05-22T00:46:32.206Z,0.00
2019-05-22T00:47:32.262Z,0.00
2019-05-22T00:48:32.319Z,0.00
2019-05-22T00:49:32.374Z,0.00
2019-05-22T00:50:32.466Z,0.00
2019-05-22T00:51:32.497Z,0.00
2019-05-22T00:52:32.544Z,0.00
2019-05-22T00:53:32.603Z,0.00
2019-05-22T00:54:32.656Z,0.00
2019-05-22T00:55:32.712Z,0.00
2019-05-22T00:56:32.766Z,0.00
2019-05-22T00:57:32.822Z,0.00
2019-05-22T00:58:32.880Z,0.00
2019-05-22T00:59:32.936Z,0.00
2019-05-22T01:00:34.888Z,0.00
2019-05-22T01:01:33.048Z,0.00
2019-05-22T01:02:33.103Z,0.00
2019-05-22T01:03:33.159Z,0.00
2019-05-22T01:04:33.214Z,0.00
2019-05-22T01:05:33.286Z,0.00
2019-05-22T01:06:33.327Z,0.00
2019-05-22T01:07:33.382Z,0.00
2019-05-22T01:08:33.438Z,0.00
2019-05-22T01:09:33.495Z,0.00
2019-05-22T01:10:33.549Z,0.00
2019-05-22T01:11:33.605Z,0.00
2019-05-22T01:12:33.664Z,0.00
2019-05-22T01:13:33.718Z,0.00
2019-05-22T01:14:42.664Z,0.00
2019-05-22T01:15:33.828Z,0.00
2019-05-22T01:16:33.891Z,0.00
2019-05-22T01:17:33.942Z,0.00
2019-05-22T01:18:33.997Z,0.00
2019-05-22T01:19:34.055Z,0.00
2019-05-22T01:20:34.109Z,0.00
2019-05-22T01:21:34.164Z,0.00
2019-05-22T01:22:34.222Z,0.00
2019-05-22T01:23:34.276Z,0.00
2019-05-22T01:24:34.332Z,0.00
2019-05-22T01:25:34.389Z,0.00
2019-05-22T01:26:34.444Z,0.00
2019-05-22T01:27:34.508Z,0.00
2019-05-22T01:28:34.554Z,0.00
2019-05-22T01:29:34.610Z,0.00
2019-05-22T01:30:34.667Z,0.00
2019-05-22T01:31:34.720Z,0.00
2019-05-22T01:32:34.779Z,0.00
2019-05-22T01:33:34.835Z,0.00
2019-05-22T01:34:34.889Z,0.00
2019-05-22T01:35:34.947Z,0.00
2019-05-22T01:36:35.002Z,0.00
2019-05-22T01:37:35.057Z,0.00
2019-05-22T01:38:35.117Z,0.00
2019-05-22T01:39:35.177Z,0.00
2019-05-22T01:40:35.224Z,0.00
2019-05-22T01:41:35.286Z,0.00
2019-05-22T01:42:36.189Z,0.00
2019-05-22T01:43:35.393Z,0.00
2019-05-22T01:44:35.449Z,0.00
2019-05-22T01:45:35.504Z,0.00
2019-05-22T01:46:35.563Z,0.00
2019-05-22T01:47:35.617Z,0.00
2019-05-22T01:48:35.675Z,0.00
2019-05-22T01:49:35.743Z,0.00
2019-05-22T01:50:35.787Z,0.00
2019-05-22T01:51:35.841Z,0.00
2019-05-22T01:52:35.903Z,0.00
2019-05-22T01:53:35.953Z,0.00
2019-05-22T01:54:36.010Z,0.00
2019-05-22T01:55:36.065Z,0.00
2019-05-22T01:56:36.122Z,0.00
2019-05-22T01:57:36.179Z,0.00
2019-05-22T01:58:36.238Z,0.00
2019-05-22T01:59:36.289Z,0.00
2019-05-22T02:00:36.347Z,0.00
2019-05-22T02:01:36.402Z,0.00
2019-05-22T02:02:36.458Z,0.00
2019-05-22T02:03:36.516Z,0.00
2019-05-22T02:04:36.570Z,0.00
2019-05-22T02:05:36.626Z,0.00
2019-05-22T02:06:36.693Z,0.00
2019-05-22T02:07:36.738Z,0.00
2019-05-22T02:08:36.794Z,0.00
2019-05-22T02:09:36.851Z,0.00
2019-05-22T02:10:36.907Z,0.00
2019-05-22T02:11:36.963Z,0.00
2019-05-22T02:12:37.017Z,0.00
2019-05-22T02:13:37.087Z,0.00
2019-05-22T02:14:37.131Z,0.00
2019-05-22T02:15:37.185Z,0.00
2019-05-22T02:16:37.242Z,0.00
2019-05-22T02:17:37.307Z,0.00
2019-05-22T02:18:37.354Z,0.00
2019-05-22T02:19:37.408Z,0.00
2019-05-22T02:20:37.466Z,0.00
2019-05-22T02:21:37.532Z,0.00
2019-05-22T02:22:37.590Z,0.00
2019-05-22T02:23:37.636Z,0.00
2019-05-22T02:24:37.689Z,0.00
2019-05-22T02:25:37.746Z,0.00
2019-05-22T02:26:37.801Z,0.00
2019-05-22T02:27:37.857Z,0.00
2019-05-22T02:28:37.915Z,0.00
2019-05-22T02:29:37.975Z,0.00
2019-05-22T02:30:38.026Z,0.00
2019-05-22T02:31:38.081Z,0.00
2019-05-22T02:32:38.138Z,0.00
2019-05-22T02:33:38.343Z,0.00
2019-05-22T02:34:38.250Z,0.00
2019-05-22T02:35:38.304Z,0.00
2019-05-22T02:36:38.370Z,0.00
2019-05-22T02:37:38.415Z,0.00
2019-05-22T02:38:38.477Z,0.00
2019-05-22T02:39:38.529Z,0.00
2019-05-22T02:40:38.588Z,0.00
2019-05-22T02:41:38.640Z,0.00
2019-05-22T02:42:38.696Z,0.00
2019-05-22T02:43:38.751Z,0.00
2019-05-22T02:44:38.810Z,0.00
2019-05-22T02:45:38.870Z,0.00
2019-05-22T02:46:38.920Z,0.00
2019-05-22T02:47:39.033Z,0.00
2019-05-22T02:48:42.246Z,0.00
2019-05-22T02:49:39.089Z,0.00
2019-05-22T02:50:39.147Z,0.00
2019-05-22T02:51:39.199Z,0.00
2019-05-22T02:52:39.261Z,0.00
2019-05-22T02:53:39.312Z,0.00
2019-05-22T02:54:39.366Z,0.00
2019-05-22T02:55:39.420Z,0.00
2019-05-22T02:56:39.476Z,0.00
2019-05-22T02:57:39.537Z,0.00
2019-05-22T02:58:39.590Z,0.00
2019-05-22T02:59:39.643Z,0.00
2019-05-22T03:00:39.718Z,0.00
2019-05-22T03:01:39.755Z,4.00
2019-05-22T03:02:39.812Z,4.00
2019-05-22T03:03:39.867Z,4.00
2019-05-22T03:04:39.924Z,4.00
2019-05-22T03:05:39.979Z,4.00
2019-05-22T03:06:40.035Z,4.00
2019-05-22T03:07:40.092Z,4.00
2019-05-22T03:08:40.146Z,8.00
2019-05-22T03:09:40.207Z,4.00
2019-05-22T03:10:40.257Z,8.00
2019-05-22T03:11:40.314Z,8.00
2019-05-22T03:12:40.376Z,8.00
2019-05-22T03:13:40.425Z,8.00
2019-05-22T03:14:40.480Z,12.00
2019-05-22T03:15:40.537Z,16.00
2019-05-22T03:16:40.608Z,16.00
2019-05-22T03:17:40.652Z,20.00
2019-05-22T03:18:40.703Z,24.00
2019-05-22T03:19:40.759Z,24.00
2019-05-22T03:20:40.818Z,28.00
2019-05-22T03:21:40.870Z,36.00
2019-05-22T03:22:40.940Z,40.00
2019-05-22T03:23:40.984Z,44.00
2019-05-22T03:24:41.040Z,52.00
2019-05-22T03:25:41.115Z,56.00
2019-05-22T03:26:41.151Z,68.00
2019-05-22T03:27:41.206Z,76.00
2019-05-22T03:28:41.263Z,84.00
2019-05-22T03:29:41.317Z,100.00
2019-05-22T03:30:41.374Z,112.00
2019-05-22T03:31:41.430Z,128.00
2019-05-22T03:32:43.604Z,140.00
2019-05-22T03:33:41.577Z,152.00
2019-05-22T03:34:41.616Z,168.00
2019-05-22T03:35:42.074Z,180.00
2019-05-22T03:36:41.709Z,196.00
2019-05-22T03:37:41.779Z,216.00
2019-05-22T03:38:41.830Z,236.00
2019-05-22T03:39:41.876Z,256.00
2019-05-22T03:40:41.931Z,272.00
2019-05-22T03:41:41.988Z,288.00
2019-05-22T03:42:42.050Z,300.00
2019-05-22T03:43:42.097Z,304.00
2019-05-22T03:44:42.155Z,312.00
2019-05-22T03:45:42.212Z,312.00
2019-05-22T03:46:42.266Z,312.00
2019-05-22T03:47:42.324Z,316.00
2019-05-22T03:48:42.376Z,316.00
2019-05-22T03:49:42.432Z,320.00
2019-05-22T03:50:42.490Z,332.00
2019-05-22T03:51:42.556Z,360.00
2019-05-22T03:52:42.598Z,392.00
2019-05-22T03:53:42.654Z,424.00
2019-05-22T03:54:42.711Z,464.00
2019-05-22T03:55:42.766Z,512.00
2019-05-22T03:56:42.823Z,532.00
2019-05-22T03:57:42.877Z,536.00
2019-05-22T03:58:42.937Z,560.00
2019-05-22T03:59:42.992Z,620.00
2019-05-22T04:00:43.772Z,648.00
2019-05-22T04:01:43.135Z,672.00
2019-05-22T04:02:43.197Z,692.00
2019-05-22T04:03:43.214Z,760.00
2019-05-22T04:04:43.269Z,840.00
2019-05-22T04:05:43.328Z,900.00
2019-05-22T04:06:43.384Z,920.00
2019-05-22T04:07:43.437Z,948.00
2019-05-22T04:08:43.493Z,988.00
2019-05-22T04:09:43.549Z,988.00
2019-05-22T04:10:43.625Z,944.00
2019-05-22T04:11:43.660Z,864.00
2019-05-22T04:12:43.715Z,848.00
2019-05-22T04:13:43.776Z,896.00
2019-05-22T04:14:43.830Z,948.00
2019-05-22T04:15:43.902Z,1056.00
2019-05-22T04:16:43.944Z,1140.00
2019-05-22T04:17:43.996Z,1028.00
2019-05-22T04:18:44.053Z,972.00
2019-05-22T04:19:50.163Z,996.00
2019-05-22T04:20:44.165Z,1008.00
2019-05-22T04:21:44.219Z,984.00
2019-05-22T04:22:44.332Z,968.00
2019-05-22T04:23:44.332Z,964.00
2019-05-22T04:24:44.388Z,988.00
2019-05-22T04:25:44.449Z,1028.00
2019-05-22T04:26:44.500Z,1060.00
2019-05-22T04:27:44.557Z,1092.00
2019-05-22T04:28:44.612Z,1092.00
2019-05-22T04:29:44.669Z,1088.00
2019-05-22T04:30:45.080Z,1144.00
2019-05-22T04:31:44.782Z,1224.00
2019-05-22T04:32:44.843Z,1260.00
2019-05-22T04:33:44.894Z,1256.00
2019-05-22T04:34:44.948Z,1232.00
2019-05-22T04:35:45.004Z,1244.00
2019-05-22T04:36:45.060Z,1280.00
2019-05-22T04:37:45.804Z,1244.00
2019-05-22T04:38:45.687Z,1204.00
2019-05-22T04:39:45.722Z,1164.00
2019-05-22T04:40:45.285Z,1148.00
2019-05-22T04:41:45.341Z,1188.00
2019-05-22T04:42:45.405Z,1276.00
2019-05-22T04:43:45.455Z,1340.00
2019-05-22T04:44:45.511Z,1356.00
2019-05-22T04:45:45.567Z,1380.00
2019-05-22T04:46:45.623Z,1376.00
2019-05-22T04:47:45.681Z,1344.00
2019-05-22T04:48:46.589Z,1288.00
2019-05-22T04:49:45.790Z,1168.00
2019-05-22T04:50:45.847Z,1076.00
2019-05-22T04:51:45.902Z,1024.00
2019-05-22T04:52:45.971Z,992.00
2019-05-22T04:53:46.014Z,1032.00
2019-05-22T04:54:46.072Z,1144.00
2019-05-22T04:55:46.132Z,1360.00
2019-05-22T04:56:46.183Z,1608.00
2019-05-22T04:57:46.241Z,1776.00
2019-05-22T04:58:46.300Z,1868.00
2019-05-22T04:59:46.351Z,1944.00
2019-05-22T05:00:46.411Z,1932.00
2019-05-22T05:01:46.465Z,1928.00
2019-05-22T05:02:46.523Z,2080.00
2019-05-22T05:03:46.586Z,2356.00
2019-05-22T05:04:46.633Z,2720.00
2019-05-22T05:05:46.689Z,3064.00
2019-05-22T05:06:46.746Z,3236.00
2019-05-22T05:07:46.799Z,3232.00
2019-05-22T05:08:46.859Z,3256.00
2019-05-22T05:09:46.929Z,3104.00
2019-05-22T05:10:46.969Z,2912.00
2019-05-22T05:11:47.026Z,2856.00
2019-05-22T05:12:47.081Z,2880.00
2019-05-22T05:13:47.194Z,3012.00
2019-05-22T05:14:47.195Z,2976.00
2019-05-22T05:15:47.261Z,2880.00
2019-05-22T05:16:47.322Z,2668.00
2019-05-22T05:17:47.426Z,2416.00
2019-05-22T05:18:47.494Z,2360.00
2019-05-22T05:19:47.510Z,2536.00
2019-05-22T05:20:47.536Z,2844.00
2019-05-22T05:21:47.589Z,2940.00
2019-05-22T05:22:47.647Z,2744.00
2019-05-22T05:23:47.703Z,2416.00
2019-05-22T05:24:47.764Z,2204.00
2019-05-22T05:25:47.815Z,2196.00
2019-05-22T05:26:47.874Z,2300.00
2019-05-22T05:27:47.928Z,2340.00
2019-05-22T05:28:47.984Z,2552.00
2019-05-22T05:29:48.040Z,2824.00
2019-05-22T05:30:48.097Z,3136.00
2019-05-22T05:31:48.153Z,3268.00
2019-05-22T05:32:48.210Z,3384.00
2019-05-22T05:33:48.271Z,3160.00
2019-05-22T05:34:48.343Z,2852.00
2019-05-22T05:35:48.379Z,2700.00
2019-05-22T05:36:48.436Z,2840.00
2019-05-22T05:37:48.494Z,2892.00
2019-05-22T05:38:48.548Z,2904.00
2019-05-22T05:39:48.604Z,3096.00
2019-05-22T05:40:48.682Z,3468.00
2019-05-22T05:41:48.754Z,3912.00
2019-05-22T05:42:48.880Z,4064.00
2019-05-22T05:43:48.831Z,3948.00
2019-05-22T05:44:48.897Z,3784.00
2019-05-22T05:45:48.946Z,3688.00
2019-05-22T05:46:49.000Z,3876.00
2019-05-22T05:47:49.056Z,4064.00
2019-05-22T05:48:49.112Z,4020.00
2019-05-22T05:49:49.175Z,3856.00
2019-05-22T05:50:49.227Z,3652.00
2019-05-22T05:51:49.283Z,3852.00
2019-05-22T05:52:49.347Z,4404.00
2019-05-22T05:53:49.396Z,4800.00
2019-05-22T05:54:49.452Z,4796.00
2019-05-22T05:55:49.511Z,4588.00
2019-05-22T05:56:49.566Z,4356.00
2019-05-22T05:57:49.624Z,4208.00
2019-05-22T05:58:49.683Z,4240.00
2019-05-22T05:59:49.735Z,4496.00
2019-05-22T06:00:50.195Z,4820.00
2019-05-22T06:01:49.850Z,5052.00
2019-05-22T06:02:56.518Z,5436.00
2019-05-22T06:03:49.961Z,5916.00
2019-05-22T06:04:50.039Z,6408.00
2019-05-22T06:05:50.075Z,7168.00
2019-05-22T06:06:50.135Z,7860.00
2019-05-22T06:07:50.208Z,8568.00
2019-05-22T06:08:50.245Z,8636.00
2019-05-22T06:09:50.303Z,7832.00
2019-05-22T06:10:50.359Z,7020.00
2019-05-22T06:11:50.415Z,6440.00
2019-05-22T06:12:50.480Z,5820.00
2019-05-22T06:13:50.530Z,5200.00
2019-05-22T06:14:50.588Z,4684.00
2019-05-22T06:15:50.665Z,4300.00
2019-05-22T06:16:50.717Z,3988.00
2019-05-22T06:17:50.758Z,3796.00
2019-05-22T06:18:50.816Z,3704.00
2019-05-22T06:19:50.873Z,3704.00
2019-05-22T06:21:03.429Z,3836.00
2019-05-22T06:21:50.985Z,4008.00
2019-05-22T06:22:51.051Z,4088.00
2019-05-22T06:23:51.100Z,4092.00
2019-05-22T06:24:51.158Z,4188.00
2019-05-22T06:25:51.215Z,4424.00
2019-05-22T06:26:51.975Z,4904.00
2019-05-22T06:27:51.327Z,5464.00
2019-05-22T06:28:51.383Z,5732.00
2019-05-22T06:29:51.442Z,6016.00
2019-05-22T06:30:51.498Z,6348.00
2019-05-22T06:31:51.554Z,6768.00
2019-05-22T06:32:51.613Z,6996.00
2019-05-22T06:33:51.670Z,6832.00
2019-05-22T06:34:51.727Z,6608.00
2019-05-22T06:35:51.786Z,6232.00
2019-05-22T06:36:51.841Z,5816.00
2019-05-22T06:37:51.900Z,5600.00
2019-05-22T06:38:51.957Z,5580.00
2019-05-22T06:39:52.011Z,5640.00
2019-05-22T06:40:52.089Z,5724.00
2019-05-22T06:41:52.157Z,5776.00
2019-05-22T06:42:52.189Z,5784.00
2019-05-22T06:43:52.240Z,5752.00
2019-05-22T06:44:52.298Z,5632.00
2019-05-22T06:45:52.356Z,5500.00
2019-05-22T06:46:52.421Z,5372.00
2019-05-22T06:47:52.468Z,5244.00
2019-05-22T06:48:53.076Z,5184.00
2019-05-22T06:49:52.584Z,5252.00
2019-05-22T06:50:52.641Z,5368.00
2019-05-22T06:51:52.795Z,5408.00
2019-05-22T06:53:08.692Z,5320.00
2019-05-22T06:53:52.812Z,5224.00
2019-05-22T06:54:52.969Z,5200.00
2019-05-22T06:55:52.927Z,5152.00
2019-05-22T06:56:52.986Z,5112.00
2019-05-22T06:57:53.041Z,5088.00
2019-05-22T06:58:53.111Z,5180.00
2019-05-22T07:00:11.605Z,5300.00
2019-05-22T07:00:53.214Z,5268.00
2019-05-22T07:02:01.058Z,5268.00
2019-05-22T07:02:53.328Z,5428.00
2019-05-22T07:03:53.392Z,5748.00
2019-05-22T07:04:53.444Z,5940.00
2019-05-22T07:05:53.500Z,6056.00
2019-05-22T07:06:53.560Z,6268.00
2019-05-22T07:07:53.614Z,6508.00
2019-05-22T07:08:53.672Z,6676.00
2019-05-22T07:09:53.729Z,6760.00
2019-05-22T07:10:53.787Z,6812.00
2019-05-22T07:11:53.845Z,6868.00
2019-05-22T07:12:54.414Z,6964.00
2019-05-22T07:13:53.960Z,7116.00
2019-05-22T07:14:54.019Z,7244.00
2019-05-22T07:15:54.078Z,7392.00
2019-05-22T07:16:54.131Z,7604.00
2019-05-22T07:17:54.187Z,7872.00
2019-05-22T07:18:54.245Z,8036.00
2019-05-22T07:19:54.344Z,8080.00
2019-05-22T07:20:54.360Z,8056.00
2019-05-22T07:21:54.417Z,8152.00
2019-05-22T07:22:54.492Z,8524.00
2019-05-22T07:23:54.532Z,9108.00
2019-05-22T07:24:54.589Z,9984.00
2019-05-22T07:25:54.651Z,10988.00
2019-05-22T07:26:54.703Z,11884.00
2019-05-22T07:27:54.760Z,12484.00
2019-05-22T07:28:54.818Z,12900.00
2019-05-22T07:29:54.875Z,12960.00
2019-05-22T07:30:54.934Z,12832.00
2019-05-22T07:31:55.511Z,12676.00
2019-05-22T07:32:55.055Z,12748.00
2019-05-22T07:33:55.107Z,13024.00
2019-05-22T07:34:55.173Z,13388.00
2019-05-22T07:36:13.558Z,13896.00
2019-05-22T07:36:55.278Z,14212.00
2019-05-22T07:37:55.337Z,14320.00
2019-05-22T07:38:55.398Z,14520.00
2019-05-22T07:39:55.451Z,14848.00
2019-05-22T07:40:55.588Z,15160.00
2019-05-22T07:41:55.568Z,15624.00
2019-05-22T07:42:55.984Z,15568.00
2019-05-22T07:43:55.683Z,15480.00
2019-05-22T07:44:55.797Z,15000.00
2019-05-22T07:45:55.986Z,13992.00
2019-05-22T07:46:55.859Z,13456.00
2019-05-22T07:47:55.916Z,13340.00
2019-05-22T07:48:55.976Z,13460.00
2019-05-22T07:49:56.039Z,13876.00
2019-05-22T07:50:56.095Z,13508.00
2019-05-22T07:52:01.271Z,13428.00
2019-05-22T07:52:56.210Z,13544.00
2019-05-22T07:53:56.268Z,13396.00
2019-05-22T07:54:56.328Z,12556.00
2019-05-22T07:55:56.387Z,11704.00
2019-05-22T07:56:56.442Z,11404.00
2019-05-22T07:57:56.500Z,11340.00
2019-05-22T07:58:58.933Z,10988.00
2019-05-22T07:59:56.621Z,10744.00
2019-05-22T08:00:56.695Z,10672.00
2019-05-22T08:01:56.735Z,10904.00
2019-05-22T08:02:56.794Z,11224.00
2019-05-22T08:03:56.851Z,11596.00
2019-05-22T08:04:56.914Z,11880.00
2019-05-22T08:05:56.967Z,12228.00
2019-05-22T08:06:57.027Z,12412.00
2019-05-22T08:07:57.090Z,12236.00
2019-05-22T08:08:57.146Z,12064.00
2019-05-22T08:09:57.202Z,12260.00
2019-05-22T08:10:57.261Z,12584.00
2019-05-22T08:11:57.319Z,12844.00
2019-05-22T08:12:57.376Z,12892.00
2019-05-22T08:13:57.436Z,12984.00
2019-05-22T08:14:57.494Z,13128.00
2019-05-22T08:15:57.553Z,13368.00
2019-05-22T08:16:57.610Z,13628.00
2019-05-22T08:17:57.669Z,13884.00
2019-05-22T08:18:57.730Z,14080.00
2019-05-22T08:19:57.787Z,14252.00
2019-05-22T08:20:57.860Z,14552.00
2019-05-22T08:22:06.652Z,14772.00
2019-05-22T08:22:58.636Z,15292.00
2019-05-22T08:23:58.025Z,15700.00
2019-05-22T08:24:58.115Z,15704.00
2019-05-22T08:25:58.337Z,16016.00
2019-05-22T08:26:58.824Z,15860.00
2019-05-22T08:27:58.254Z,16320.00
2019-05-22T08:28:58.312Z,16664.00
2019-05-22T08:29:58.378Z,17100.00
2019-05-22T08:30:58.431Z,18016.00
2019-05-22T08:31:58.492Z,18400.00
2019-05-22T08:32:58.547Z,19040.00
2019-05-22T08:33:58.614Z,20128.00
2019-05-22T08:34:58.670Z,20576.00
2019-05-22T08:35:58.937Z,20416.00
2019-05-22T08:36:58.786Z,20928.00
2019-05-22T08:37:58.895Z,20768.00
2019-05-22T08:38:58.907Z,20512.00
2019-05-22T08:39:58.960Z,20352.00
2019-05-22T08:40:59.040Z,20128.00
2019-05-22T08:41:59.175Z,20096.00
2019-05-22T08:42:59.143Z,20224.00
2019-05-22T08:44:15.481Z,20800.00
2019-05-22T08:44:59.256Z,21920.00
2019-05-22T08:45:59.318Z,22944.00
2019-05-22T08:46:59.377Z,23328.00
2019-05-22T08:47:59.491Z,23872.00
2019-05-22T08:48:59.494Z,23264.00
2019-05-22T08:49:59.572Z,22624.00
2019-05-22T08:50:59.613Z,23040.00
2019-05-22T08:51:59.743Z,23648.00
2019-05-22T08:52:59.733Z,23456.00
2019-05-22T08:53:59.793Z,23456.00
2019-05-22T08:54:59.858Z,23168.00
2019-05-22T08:55:59.915Z,23488.00
2019-05-22T08:56:59.982Z,23648.00
2019-05-22T08:58:00.034Z,23456.00
2019-05-22T08:59:18.096Z,24032.00
2019-05-22T09:00:00.154Z,23968.00
2019-05-22T09:01:00.218Z,23104.00
2019-05-22T09:02:00.277Z,23040.00
2019-05-22T09:03:00.335Z,23040.00
2019-05-22T09:04:00.401Z,22368.00
2019-05-22T09:05:00.459Z,21184.00
2019-05-22T09:06:01.208Z,20064.00
2019-05-22T09:07:00.577Z,20448.00
2019-05-22T09:08:00.637Z,20992.00
2019-05-22T09:09:00.708Z,22240.00
2019-05-22T09:10:00.760Z,23008.00
2019-05-22T09:11:00.820Z,22656.00
2019-05-22T09:12:00.888Z,23488.00
2019-05-22T09:13:01.027Z,24000.00
2019-05-22T09:14:01.006Z,24608.00
2019-05-22T09:15:01.062Z,24000.00
2019-05-22T09:16:02.043Z,23104.00
2019-05-22T09:17:01.184Z,21952.00
2019-05-22T09:18:01.247Z,20928.00
2019-05-22T09:19:01.874Z,20800.00
2019-05-22T09:20:01.368Z,19424.00
2019-05-22T09:21:01.432Z,18208.00
2019-05-22T09:22:01.492Z,17504.00
2019-05-22T09:23:01.550Z,18624.00
2019-05-22T09:24:01.611Z,18752.00
2019-05-22T09:25:01.744Z,19744.00
2019-05-22T09:26:01.731Z,20672.00
2019-05-22T09:27:02.957Z,19808.00
2019-05-22T09:28:01.853Z,19648.00
2019-05-22T09:29:01.914Z,19712.00
2019-05-22T09:30:01.997Z,20960.00
2019-05-22T09:31:02.037Z,22464.00
2019-05-22T09:32:02.102Z,24736.00
2019-05-22T09:33:02.156Z,26336.00
2019-05-22T09:34:02.252Z,26336.00
2019-05-22T09:35:02.346Z,25376.00
2019-05-22T09:36:02.399Z,24448.00
2019-05-22T09:37:02.398Z,23040.00
2019-05-22T09:38:02.460Z,21536.00
2019-05-22T09:39:02.523Z,22528.00
2019-05-22T09:40:02.590Z,23712.00
2019-05-22T09:41:02.643Z,24256.00
2019-05-22T09:42:02.703Z,24704.00
2019-05-22T09:43:02.774Z,24288.00
2019-05-22T09:44:02.824Z,21984.00
2019-05-22T09:45:03.365Z,20864.00
2019-05-22T09:46:03.431Z,19904.00
2019-05-22T09:47:03.013Z,17224.00
2019-05-22T09:48:03.069Z,16220.00
2019-05-22T09:49:03.131Z,18688.00
2019-05-22T09:50:03.191Z,21088.00
2019-05-22T09:51:03.269Z,22688.00
2019-05-22T09:52:03.316Z,23744.00
2019-05-22T09:53:03.376Z,24736.00
2019-05-22T09:54:03.435Z,25600.00
2019-05-22T09:55:03.507Z,26432.00
2019-05-22T09:56:03.558Z,24800.00
2019-05-22T09:57:03.618Z,26272.00
2019-05-22T09:58:03.690Z,26208.00
2019-05-22T09:59:03.743Z,27456.00
2019-05-22T10:00:03.808Z,27648.00
2019-05-22T10:01:03.864Z,26912.00
2019-05-22T10:02:03.925Z,21824.00
2019-05-22T10:03:03.989Z,23040.00
2019-05-22T10:04:05.405Z,25056.00
2019-05-22T10:05:04.118Z,22464.00
2019-05-22T10:06:04.231Z,23776.00
2019-05-22T10:07:04.236Z,23264.00
2019-05-22T10:08:04.298Z,22432.00
2019-05-22T10:09:04.359Z,77664.00
2019-05-22T10:10:04.423Z,80160.00
2019-05-22T10:11:04.485Z,80352.00
2019-05-22T10:12:04.549Z,77664.00
2019-05-22T10:13:04.609Z,79776.00
2019-05-22T10:14:04.672Z,28608.00
2019-05-22T10:15:05.141Z,80096.00
2019-05-22T10:16:04.801Z,80384.00
2019-05-22T10:17:05.174Z,82528.00
2019-05-22T10:18:05.620Z,83360.00
2019-05-22T10:19:04.995Z,83776.00
2019-05-22T10:20:05.062Z,82240.00
2019-05-22T10:21:05.141Z,80000.00
2019-05-22T10:22:05.983Z,51168.00
2019-05-22T10:23:14.712Z,79872.00
2019-05-22T10:24:05.322Z,80288.00
2019-05-22T10:25:15.546Z,79072.00
2019-05-22T10:26:05.453Z,77184.00
2019-05-22T10:27:05.522Z,76352.00
2019-05-22T10:28:05.592Z,77920.00
2019-05-22T10:29:05.657Z,78720.00
2019-05-22T10:30:05.722Z,78208.00
2019-05-22T10:31:06.947Z,79520.00
2019-05-22T10:32:05.856Z,82688.00
2019-05-22T10:33:05.940Z,85536.00
2019-05-22T10:34:05.991Z,86144.00
2019-05-22T10:35:06.062Z,86752.00
2019-05-22T10:36:06.188Z,86144.00
2019-05-22T10:37:06.196Z,85568.00
2019-05-22T10:38:06.266Z,84416.00
2019-05-22T10:39:06.334Z,80256.00
2019-05-22T10:40:06.400Z,30048.00
2019-05-22T10:41:06.475Z,75840.00
2019-05-22T10:42:06.537Z,71808.00
2019-05-22T10:43:06.613Z,74496.00
2019-05-22T10:44:06.674Z,75744.00
2019-05-22T10:45:06.744Z,76032.00
2019-05-22T10:46:06.819Z,76256.00
2019-05-22T10:47:06.883Z,75200.00
2019-05-22T10:48:06.954Z,74976.00
2019-05-22T10:49:49.466Z,73920.00
2019-05-22T10:50:49.539Z,72576.00
2019-05-22T10:51:50.415Z,73152.00
2019-05-22T10:52:54.039Z,72448.00
2019-05-22T10:53:49.746Z,72736.00
2019-05-22T10:54:49.812Z,72800.00
2019-05-22T10:55:49.883Z,74240.00
2019-05-22T10:56:49.953Z,74240.00
2019-05-22T10:57:50.049Z,74368.00
2019-05-22T10:58:50.093Z,73152.00
2019-05-22T10:59:50.176Z,30976.00
2019-05-22T11:00:50.232Z,70080.00
2019-05-22T11:01:50.617Z,67168.00
2019-05-22T11:02:50.400Z,66752.00
2019-05-22T11:03:50.519Z,66464.00
2019-05-22T11:04:50.511Z,67104.00
2019-05-22T11:06:05.873Z,66336.00
2019-05-22T11:06:50.650Z,49120.00
2019-05-22T11:07:50.732Z,68192.00
2019-05-22T11:08:50.790Z,66592.00
2019-05-22T11:09:50.859Z,37632.00
2019-05-22T11:10:50.943Z,25472.00
2019-05-22T11:11:51.003Z,52160.00
2019-05-22T11:12:51.068Z,23904.00
2019-05-22T11:14:00.532Z,37056.00
2019-05-22T11:14:51.207Z,23008.00
2019-05-22T11:15:51.286Z,22080.00
2019-05-22T11:16:51.347Z,23552.00
2019-05-22T11:17:51.419Z,18752.00
2019-05-22T11:18:51.485Z,16908.00
2019-05-22T11:19:51.575Z,16420.00
2019-05-22T11:20:51.748Z,19040.00
2019-05-22T11:21:51.690Z,19136.00
2019-05-22T11:22:51.762Z,57056.00
2019-05-22T11:23:53.180Z,53760.00
2019-05-22T11:24:51.895Z,53504.00
2019-05-22T11:25:51.966Z,53472.00
2019-05-22T11:26:52.027Z,53248.00
2019-05-22T11:27:52.093Z,44960.00
2019-05-22T11:28:52.162Z,54432.00
2019-05-22T11:29:52.232Z,54208.00
2019-05-22T11:30:52.296Z,51584.00
2019-05-22T11:31:52.362Z,51424.00
2019-05-22T11:32:52.436Z,50784.00
2019-05-22T11:33:52.498Z,48544.00
2019-05-22T11:34:52.565Z,49248.00
2019-05-22T11:35:52.948Z,49536.00
2019-05-22T11:36:52.706Z,41216.00
2019-05-22T11:37:52.769Z,49024.00
2019-05-22T11:38:52.841Z,48512.00
2019-05-22T11:39:52.906Z,48736.00
2019-05-22T11:40:52.974Z,48480.00
2019-05-22T11:41:53.052Z,50816.00
2019-05-22T11:42:53.127Z,50752.00
2019-05-22T11:43:53.183Z,49824.00
2019-05-22T11:44:53.250Z,49536.00
2019-05-22T11:45:53.319Z,51392.00
2019-05-22T11:46:53.386Z,52256.00
2019-05-22T11:47:53.456Z,29440.00
2019-05-22T11:48:53.531Z,50816.00
2019-05-22T11:49:53.593Z,35584.00
2019-05-22T11:50:53.671Z,12100.00
2019-05-22T11:51:53.730Z,13712.00
2019-05-22T11:52:53.802Z,49376.00
2019-05-22T11:54:08.202Z,50752.00
2019-05-22T11:54:53.937Z,52032.00
2019-05-22T11:55:54.015Z,19552.00
2019-05-22T11:56:54.076Z,16912.00
2019-05-22T11:57:54.143Z,52576.00
2019-05-22T11:58:54.211Z,41824.00
2019-05-22T11:59:54.281Z,55392.00
2019-05-22T12:00:54.358Z,57376.00
2019-05-22T12:01:54.417Z,60896.00
2019-05-22T12:02:54.492Z,66592.00
2019-05-22T12:03:54.559Z,13268.00
2019-05-22T12:04:54.626Z,13768.00
2019-05-22T12:07:02.242Z,79904.00
2019-05-22T12:08:02.287Z,83840.00
2019-05-22T12:09:02.355Z,89056.00
2019-05-22T12:10:02.425Z,59520.00
2019-05-22T12:11:02.505Z,94016.00
2019-05-22T12:12:02.563Z,97728.00
2019-05-22T12:13:02.632Z,101888.00
2019-05-22T12:14:02.717Z,103328.00
2019-05-22T12:15:02.794Z,107328.00
2019-05-22T12:16:02.838Z,107360.00
2019-05-22T12:17:02.907Z,110912.00
2019-05-22T12:18:02.977Z,109888.00
2019-05-22T12:19:03.045Z,42112.00